createdAt,value
2023-03-21T00:01:30.623Z,101227.59
2023-03-21T00:03:58.176Z,101223.09
2023-03-21T00:06:25.744Z,101219.03
2023-03-21T00:08:53.485Z,101215.44
2023-03-21T00:11:21.613Z,101218.97
2023-03-21T00:13:50.348Z,101220.38
2023-03-21T00:16:29.234Z,101209.84
2023-03-21T00:18:58.687Z,101218.22
2023-03-21T00:22:03.590Z,101212.53
2023-03-21T00:24:19.709Z,101205.53
2023-03-21T00:26:47.117Z,101214.06
2023-03-21T00:29:16.012Z,101211.03
2023-03-21T00:31:43.426Z,101206.34
2023-03-21T00:34:14.079Z,101198.75
2023-03-21T00:36:41.668Z,101204.38
2023-03-21T00:39:09.521Z,101197.84
2023-03-21T00:41:42.854Z,101194.50
2023-03-21T00:44:13.583Z,101193.72
2023-03-21T00:46:51.676Z,101197.13
2023-03-21T00:49:24.736Z,101191.91
2023-03-21T00:51:53.241Z,101186.91
2023-03-21T00:54:20.758Z,101185.09
2023-03-21T00:56:48.159Z,101190.13
2023-03-21T00:59:16.598Z,101195.44
2023-03-21T01:01:46.782Z,101191.91
2023-03-21T01:04:16.525Z,101185.81
2023-03-21T01:06:45.059Z,101180.78
2023-03-21T01:09:15.112Z,101188.44
2023-03-21T01:11:42.891Z,101194.22
2023-03-21T01:14:21.875Z,101188.19
2023-03-21T01:16:51.230Z,101196.38
2023-03-21T01:19:50.648Z,101187.03
2023-03-21T01:22:07.479Z,101184.03
2023-03-21T01:24:37.715Z,101183.91
2023-03-21T01:27:05.948Z,101182.28
2023-03-21T01:29:33.352Z,101176.31
2023-03-21T01:32:02.074Z,101181.38
2023-03-21T01:34:29.931Z,101185.47
2023-03-21T01:36:57.404Z,101189.88
2023-03-21T01:39:24.837Z,101185.50
2023-03-21T01:41:52.254Z,101184.53
2023-03-21T01:44:20.297Z,101184.69
2023-03-21T01:49:41.589Z,101185.34
2023-03-21T01:52:20.950Z,101179.63
2023-03-21T01:54:56.943Z,101179.31
2023-03-21T01:57:40.389Z,101182.78
2023-03-21T02:00:13.033Z,101179.44
2023-03-21T02:02:52.137Z,101168.34
2023-03-21T02:05:28.285Z,101171.66
2023-03-21T02:07:55.815Z,101174.47
2023-03-21T02:10:23.331Z,101173.66
2023-03-21T02:12:51.176Z,101175.34
2023-03-21T02:15:18.749Z,101171.66
2023-03-21T02:17:53.328Z,101178.56
2023-03-21T02:20:36.054Z,101178.56
2023-03-21T02:23:24.522Z,101175.94
2023-03-21T02:26:19.114Z,101173.56
2023-03-21T02:28:48.938Z,101178.94
2023-03-21T02:31:28.333Z,101168.16
2023-03-21T02:34:36.206Z,101169.13
2023-03-21T02:37:09.762Z,101169.13
2023-03-21T02:39:48.807Z,101172.34
2023-03-21T02:42:21.813Z,101158.44
2023-03-21T02:44:57.036Z,101170.78
2023-03-21T02:47:28.983Z,101168.00
2023-03-21T02:49:59.816Z,101170.34
2023-03-21T02:52:39.144Z,101167.03
2023-03-21T02:55:13.726Z,101176.50
2023-03-21T02:57:44.004Z,101175.88
2023-03-21T03:00:17.852Z,101174.97
2023-03-21T03:02:47.520Z,101174.94
2023-03-21T03:05:21.605Z,101174.03
2023-03-21T03:08:00.989Z,101180.22
2023-03-21T03:10:40.305Z,101175.75
2023-03-21T03:13:16.971Z,101178.94
2023-03-21T03:15:57.769Z,101177.38
2023-03-21T03:18:33.543Z,101175.47
2023-03-21T03:21:09.498Z,101174.66
2023-03-21T03:23:45.945Z,101181.59
2023-03-21T03:26:17.758Z,101172.75
2023-03-21T03:28:50.190Z,101169.19
2023-03-21T03:31:25.919Z,101177.06
2023-03-21T03:33:57.137Z,101178.97
2023-03-21T03:36:32.602Z,101180.75
2023-03-21T03:39:05.351Z,101175.38
2023-03-21T03:42:03.050Z,101178.22
2023-03-21T03:44:24.210Z,101180.69
2023-03-21T03:46:57.211Z,101185.06
2023-03-21T03:49:27.953Z,101180.78
2023-03-21T03:52:00.317Z,101183.31
2023-03-21T03:54:33.197Z,101182.44
2023-03-21T03:57:01.263Z,101181.41
2023-03-21T03:59:28.710Z,101187.56
2023-03-21T04:01:56.172Z,101180.88
2023-03-21T04:04:28.621Z,101176.50
2023-03-21T04:06:58.011Z,101171.28
2023-03-21T04:09:40.942Z,101171.38
2023-03-21T04:12:12.798Z,101177.44
2023-03-21T04:14:45.581Z,101172.19
2023-03-21T04:17:14.662Z,101177.97
2023-03-21T04:19:42.468Z,101172.91
2023-03-21T04:22:09.941Z,101180.75
2023-03-21T04:24:37.501Z,101168.41
2023-03-21T04:27:05.789Z,101172.44
2023-03-21T04:29:34.564Z,101171.88
2023-03-21T04:32:02.346Z,101170.34
2023-03-21T04:34:29.930Z,101168.72
2023-03-21T04:36:57.874Z,101172.75
2023-03-21T04:39:25.474Z,101167.91
2023-03-21T04:41:52.971Z,101172.63
2023-03-21T04:44:20.891Z,101172.75
2023-03-21T04:46:50.300Z,101169.16
2023-03-21T04:49:18.466Z,101171.81
2023-03-21T04:51:46.035Z,101177.25
2023-03-21T04:56:41.102Z,101177.91
2023-03-21T04:59:12.687Z,101180.22
2023-03-21T05:01:41.068Z,101174.38
2023-03-21T05:04:10.799Z,101168.41
2023-03-21T05:06:38.276Z,101178.06
2023-03-21T05:09:07.085Z,101177.06
2023-03-21T05:11:37.623Z,101176.00
2023-03-21T05:14:05.712Z,101177.31
2023-03-21T05:16:34.750Z,101177.03
2023-03-21T05:19:04.966Z,101175.16
2023-03-21T05:21:41.861Z,101173.81
2023-03-21T05:24:12.143Z,101173.75
2023-03-21T05:26:40.111Z,101168.81
2023-03-21T05:29:08.241Z,101168.41
2023-03-21T05:31:36.240Z,101170.13
2023-03-21T05:34:04.120Z,101165.94
2023-03-21T05:36:33.985Z,101168.38
2023-03-21T05:39:02.847Z,101165.09
2023-03-21T05:41:30.510Z,101168.72
2023-03-21T05:43:57.951Z,101171.16
2023-03-21T05:46:25.381Z,101168.72
2023-03-21T05:48:53.002Z,101169.06
2023-03-21T05:51:20.542Z,101170.16
2023-03-21T05:53:48.487Z,101166.56
2023-03-21T05:56:17.330Z,101166.53
2023-03-21T05:58:44.804Z,101173.56
2023-03-21T06:01:12.529Z,101171.13
2023-03-21T06:03:39.965Z,101177.22
2023-03-21T06:06:08.143Z,101173.63
2023-03-21T06:08:35.737Z,101174.00
2023-03-21T06:11:03.280Z,101169.38
2023-03-21T06:13:32.882Z,101173.84
2023-03-21T06:16:00.384Z,101182.38
2023-03-21T06:18:28.072Z,101177.06
2023-03-21T06:20:56.629Z,101184.91
2023-03-21T06:23:24.061Z,101181.41
2023-03-21T06:25:51.576Z,101184.19
2023-03-21T06:28:19.069Z,101183.59
2023-03-21T06:30:47.777Z,101181.38
2023-03-21T06:33:15.358Z,101186.84
2023-03-21T06:35:42.774Z,101189.41
2023-03-21T06:38:10.334Z,101184.97
2023-03-21T06:40:38.931Z,101187.69
2023-03-21T06:43:06.706Z,101188.97
2023-03-21T06:45:34.114Z,101189.84
2023-03-21T06:48:02.922Z,101183.84
2023-03-21T06:50:30.417Z,101186.03
2023-03-21T06:52:59.334Z,101187.03
2023-03-21T06:55:28.787Z,101191.78
2023-03-21T06:57:57.334Z,101189.72
2023-03-21T07:00:25.304Z,101192.19
2023-03-21T07:02:53.815Z,101193.16
2023-03-21T07:05:22.664Z,101191.38
2023-03-21T07:07:50.109Z,101191.28
2023-03-21T07:10:17.785Z,101192.84
2023-03-21T07:12:45.316Z,101196.59
2023-03-21T07:15:12.937Z,101189.88
2023-03-21T07:17:40.361Z,101196.81
2023-03-21T07:20:08.674Z,101192.53
2023-03-21T07:22:37.451Z,101193.22
2023-03-21T07:25:06.290Z,101201.97
2023-03-21T07:27:33.769Z,101201.97
2023-03-21T07:30:01.229Z,101201.81
2023-03-21T07:32:29.986Z,101200.84
2023-03-21T07:34:57.551Z,101208.53
2023-03-21T07:37:24.960Z,101200.13
2023-03-21T07:39:53.781Z,101197.72
2023-03-21T07:42:21.312Z,101201.28
2023-03-21T07:44:48.748Z,101200.13
2023-03-21T07:47:16.159Z,101203.56
2023-03-21T07:49:43.559Z,101205.34
2023-03-21T07:52:11.026Z,101209.84
2023-03-21T07:54:38.463Z,101202.16
2023-03-21T07:57:07.335Z,101201.41
2023-03-21T07:59:34.758Z,101204.66
2023-03-21T08:02:02.214Z,101196.97
2023-03-21T08:04:30.138Z,101193.78
2023-03-21T08:06:58.064Z,101197.66
2023-03-21T08:09:25.462Z,101190.00
2023-03-21T08:11:52.857Z,101185.94
2023-03-21T08:14:21.592Z,101189.75
2023-03-21T08:16:49.019Z,101195.91
2023-03-21T08:19:18.671Z,101195.31
2023-03-21T08:21:46.082Z,101197.69
2023-03-21T08:24:13.461Z,101197.19
2023-03-21T08:26:41.060Z,101201.34
2023-03-21T08:29:08.896Z,101198.00
2023-03-21T08:31:37.655Z,101197.97
2023-03-21T08:34:05.176Z,101194.59
2023-03-21T08:36:32.730Z,101188.41
2023-03-21T08:39:05.633Z,101202.41
2023-03-21T08:41:33.566Z,101191.81
2023-03-21T08:44:00.972Z,101187.88
2023-03-21T08:46:28.683Z,101197.19
2023-03-21T08:48:57.551Z,101187.84
2023-03-21T08:51:24.954Z,101183.66
2023-03-21T08:53:52.558Z,101188.84
2023-03-21T08:56:19.999Z,101189.75
2023-03-21T08:58:47.408Z,101189.56
2023-03-21T09:01:15.884Z,101188.91
2023-03-21T09:03:43.832Z,101188.09
2023-03-21T09:06:14.282Z,101194.91
2023-03-21T09:08:43.331Z,101187.91
2023-03-21T09:11:11.641Z,101185.44
2023-03-21T09:13:39.138Z,101186.41
2023-03-21T09:16:07.367Z,101190.75
2023-03-21T09:18:47.094Z,101192.47
2023-03-21T09:21:18.163Z,101195.09
2023-03-21T09:23:46.142Z,101192.47
2023-03-21T09:26:13.968Z,101190.81
2023-03-21T09:28:41.662Z,101188.97
2023-03-21T09:31:11.295Z,101194.28
2023-03-21T09:33:40.210Z,101194.09
2023-03-21T09:36:11.751Z,101195.81
2023-03-21T09:38:40.978Z,101187.25
2023-03-21T09:41:18.573Z,101189.06
2023-03-21T09:43:59.949Z,101194.25
2023-03-21T09:46:35.761Z,101187.50
2023-03-21T09:49:07.937Z,101177.16
2023-03-21T09:51:38.215Z,101187.78
2023-03-21T09:54:14.270Z,101186.47
2023-03-21T09:56:43.930Z,101184.00
2023-03-21T09:59:20.884Z,101182.22
2023-03-21T10:01:49.917Z,101177.72
2023-03-21T10:04:18.853Z,101177.94
2023-03-21T10:06:53.714Z,101175.50
2023-03-21T10:09:24.445Z,101176.25
2023-03-21T10:11:57.258Z,101168.63
2023-03-21T10:14:31.169Z,101166.03
2023-03-21T10:17:01.760Z,101171.25
2023-03-21T10:19:29.792Z,101167.84
2023-03-21T10:22:03.083Z,101161.84
2023-03-21T10:24:34.684Z,101166.03
2023-03-21T10:27:04.769Z,101162.50
2023-03-21T10:29:37.166Z,101149.72
2023-03-21T10:32:04.975Z,101150.63
2023-03-21T10:34:37.456Z,101144.59
2023-03-21T10:37:06.830Z,101142.94
2023-03-21T10:39:40.154Z,101135.16
2023-03-21T10:42:15.774Z,101140.16
2023-03-21T10:44:48.829Z,101144.72
2023-03-21T10:47:21.580Z,101137.78
2023-03-21T10:52:39.347Z,101134.38
2023-03-21T10:55:19.512Z,101138.66
2023-03-21T10:57:47.964Z,101132.63
2023-03-21T11:00:21.726Z,101143.81
2023-03-21T11:02:51.385Z,101137.78
2023-03-21T11:05:23.073Z,101135.94
2023-03-21T11:07:58.761Z,101137.66
2023-03-21T11:10:33.659Z,101127.41
2023-03-21T11:13:06.872Z,101135.22
2023-03-21T11:15:42.057Z,101124.84
2023-03-21T11:18:18.626Z,101124.00
2023-03-21T11:20:51.734Z,101122.25
2023-03-21T11:23:20.892Z,101119.66
2023-03-21T11:25:51.636Z,101115.34
2023-03-21T11:28:22.082Z,101117.09
2023-03-21T11:30:55.525Z,101117.09
2023-03-21T11:33:27.039Z,101111.78
2023-03-21T11:36:02.901Z,101111.91
2023-03-21T11:38:34.006Z,101103.25
2023-03-21T11:41:04.257Z,101101.53
2023-03-21T11:43:35.957Z,101095.47
2023-03-21T11:46:08.918Z,101093.72
2023-03-21T11:48:40.804Z,101088.56
2023-03-21T11:51:18.179Z,101088.50
2023-03-21T11:53:49.987Z,101090.16
2023-03-21T11:56:26.497Z,101085.84
2023-03-21T11:59:17.300Z,101077.09
2023-03-21T12:01:57.179Z,101077.91
2023-03-21T12:04:40.525Z,101073.59
2023-03-21T12:07:19.887Z,101067.56
2023-03-21T12:09:54.490Z,101064.06
2023-03-21T12:12:39.364Z,101064.91
2023-03-21T12:15:18.278Z,101061.47
2023-03-21T12:17:55.607Z,101055.38
2023-03-21T12:20:40.284Z,101052.88
2023-03-21T12:23:19.314Z,101058.00
2023-03-21T12:25:54.138Z,101046.72
2023-03-21T12:28:34.771Z,101044.06
2023-03-21T12:31:12.131Z,101038.03
2023-03-21T12:33:54.244Z,101038.91
2023-03-21T12:36:38.636Z,101033.69
2023-03-21T12:39:21.705Z,101023.28
2023-03-21T12:42:04.322Z,101030.25
2023-03-21T12:44:39.005Z,101028.56
2023-03-21T12:47:11.350Z,101030.47
2023-03-21T12:49:43.915Z,101021.75
2023-03-21T12:52:15.575Z,101020.84
2023-03-21T12:54:49.507Z,101024.31
2023-03-21T12:57:21.224Z,101019.25
2023-03-21T12:59:56.152Z,101018.31
2023-03-21T13:02:30.543Z,101004.31
2023-03-21T13:05:05.982Z,101013.13
2023-03-21T13:07:38.352Z,100999.28
2023-03-21T13:10:14.725Z,101000.34
2023-03-21T13:12:49.191Z,100995.06
2023-03-21T13:15:54.774Z,100996.69
2023-03-21T13:18:32.289Z,100987.25
2023-03-21T13:21:03.702Z,100987.22
2023-03-21T13:23:36.703Z,100981.97
2023-03-21T13:26:08.774Z,100976.81
2023-03-21T13:28:37.932Z,100981.19
2023-03-21T13:31:23.325Z,100980.34
2023-03-21T13:33:52.607Z,100981.19
2023-03-21T13:36:28.819Z,100978.72
2023-03-21T13:39:01.891Z,100974.25
2023-03-21T13:41:32.999Z,100963.81
2023-03-21T13:44:10.815Z,100980.44
2023-03-21T13:46:53.322Z,100968.25
2023-03-21T13:49:29.348Z,100966.56
2023-03-21T13:51:58.469Z,100966.56
2023-03-21T13:54:44.460Z,100958.59
2023-03-21T13:57:23.370Z,100961.16
2023-03-21T13:59:50.870Z,100959.44
2023-03-21T14:02:33.635Z,100956.88
2023-03-21T14:05:06.055Z,100957.84
2023-03-21T14:07:36.662Z,100954.31
2023-03-21T14:10:09.469Z,100954.28
2023-03-21T14:12:41.167Z,100945.53
2023-03-21T14:15:17.178Z,100952.44
2023-03-21T14:17:53.736Z,100950.88
2023-03-21T14:20:24.178Z,100943.03
2023-03-21T14:22:51.841Z,100943.81
2023-03-21T14:25:21.522Z,100944.72
2023-03-21T14:27:52.582Z,100937.69
2023-03-21T14:30:23.990Z,100933.44
2023-03-21T14:32:55.826Z,100932.69
2023-03-21T14:35:23.706Z,100929.03
2023-03-21T14:37:52.642Z,100924.66
2023-03-21T14:40:25.286Z,100921.34
2023-03-21T14:42:53.704Z,100921.09
2023-03-21T14:45:23.155Z,100919.25
2023-03-21T14:48:00.013Z,100915.72
2023-03-21T14:50:35.818Z,100917.81
2023-03-21T14:53:03.608Z,100914.25
2023-03-21T14:55:31.948Z,100910.69
2023-03-21T14:57:59.596Z,100907.16
2023-03-21T15:00:30.333Z,100902.22
2023-03-21T15:03:01.286Z,100903.06
2023-03-21T15:05:33.388Z,100901.34
2023-03-21T15:08:03.593Z,100904.41
2023-03-21T15:10:32.575Z,100887.59
2023-03-21T15:13:02.545Z,100890.97
2023-03-21T15:15:32.706Z,100894.47
2023-03-21T15:18:07.231Z,100894.38
2023-03-21T15:20:38.523Z,100888.25
2023-03-21T15:23:10.678Z,100890.88
2023-03-21T15:25:39.490Z,100886.91
2023-03-21T15:28:07.444Z,100874.50
2023-03-21T15:30:36.059Z,100875.28
2023-03-21T15:33:10.576Z,100874.34
2023-03-21T15:35:40.953Z,100872.81
2023-03-21T15:38:21.771Z,100872.63
2023-03-21T15:40:49.290Z,100880.75
2023-03-21T15:43:18.837Z,100872.75
2023-03-21T15:45:50.873Z,100871.06
2023-03-21T15:48:23.175Z,100867.59
2023-03-21T15:50:57.425Z,100859.81
2023-03-21T15:53:25.933Z,100871.06
2023-03-21T15:55:57.509Z,100858.91
2023-03-21T15:58:27.747Z,100861.53
2023-03-21T16:00:57.570Z,100858.03
2023-03-21T16:03:29.176Z,100852.59
2023-03-21T16:06:05.044Z,100849.59
2023-03-21T16:08:35.815Z,100852.16
2023-03-21T16:11:19.150Z,100841.13
2023-03-21T16:13:46.901Z,100840.03
2023-03-21T16:16:17.851Z,100837.88
2023-03-21T16:18:46.867Z,100833.28
2023-03-21T16:21:16.317Z,100840.31
2023-03-21T16:23:44.001Z,100841.09
2023-03-21T16:26:12.982Z,100846.25
2023-03-21T16:28:40.554Z,100850.72
2023-03-21T16:31:12.729Z,100841.75
2023-03-21T16:33:40.318Z,100843.44
2023-03-21T16:36:13.866Z,100846.09
2023-03-21T16:38:41.349Z,100840.84
2023-03-21T16:41:11.257Z,100846.06
2023-03-21T16:43:42.784Z,100856.47
2023-03-21T16:46:14.984Z,100860.44
2023-03-21T16:48:43.017Z,100854.19
2023-03-21T16:51:21.646Z,100845.28
2023-03-21T16:53:51.409Z,100852.31
2023-03-21T16:56:21.520Z,100840.03
2023-03-21T16:58:49.312Z,100844.47
2023-03-21T17:01:19.672Z,100844.34
2023-03-21T17:03:48.291Z,100842.56
2023-03-21T17:06:18.669Z,100840.94
2023-03-21T17:08:46.860Z,100836.72
2023-03-21T17:11:17.501Z,100832.22
2023-03-21T17:13:45.436Z,100829.00
2023-03-21T17:16:14.028Z,100824.59
2023-03-21T17:18:41.554Z,100823.66
2023-03-21T17:21:14.511Z,100821.03
2023-03-21T17:23:43.975Z,100826.22
2023-03-21T17:26:14.030Z,100821.06
2023-03-21T17:28:42.059Z,100824.63
2023-03-21T17:31:14.019Z,100819.47
2023-03-21T17:33:41.581Z,100819.28
2023-03-21T17:36:15.037Z,100815.97
2023-03-21T17:38:45.804Z,100816.81
2023-03-21T17:41:14.616Z,100813.59
2023-03-21T17:43:42.119Z,100819.50
2023-03-21T17:46:14.034Z,100812.53
2023-03-21T17:48:41.611Z,100814.16
2023-03-21T17:51:12.758Z,100815.00
2023-03-21T17:53:40.302Z,100813.28
2023-03-21T17:56:13.543Z,100810.63
2023-03-21T17:58:40.989Z,100808.97
2023-03-21T18:01:08.577Z,100810.09
2023-03-21T18:03:36.031Z,100813.66
2023-03-21T18:06:03.914Z,100815.41
2023-03-21T18:08:31.372Z,100814.28
2023-03-21T18:10:59.016Z,100818.00
2023-03-21T18:13:27.796Z,100810.00
2023-03-21T18:15:56.369Z,100814.19
2023-03-21T18:18:23.958Z,100804.69
2023-03-21T18:20:53.664Z,100801.16
2023-03-21T18:23:32.235Z,100810.75
2023-03-21T18:26:00.332Z,100805.59
2023-03-21T18:28:29.082Z,100815.09
2023-03-21T18:31:17.983Z,100810.88
2023-03-21T18:33:45.244Z,100809.09
2023-03-21T18:36:15.330Z,100807.28
2023-03-21T18:38:43.124Z,100813.38
2023-03-21T18:41:11.441Z,100811.72
2023-03-21T18:44:05.274Z,100812.47
2023-03-21T18:46:27.852Z,100814.28
2023-03-21T18:48:55.628Z,100815.09
2023-03-21T18:51:23.080Z,100809.03
2023-03-21T18:53:50.563Z,100814.28
2023-03-21T18:57:05.888Z,100816.00
2023-03-21T18:59:07.410Z,100817.72
2023-03-21T19:01:35.811Z,100821.22
2023-03-21T19:04:20.734Z,100822.03
2023-03-21T19:06:51.066Z,100826.38
2023-03-21T19:09:18.726Z,100819.50
2023-03-21T19:11:46.673Z,100824.69
2023-03-21T19:14:17.481Z,100820.34
2023-03-21T19:17:26.666Z,100810.84
2023-03-21T19:19:33.756Z,100817.81
2023-03-21T19:22:01.644Z,100818.84
2023-03-21T19:24:29.362Z,100815.34
2023-03-21T19:26:56.929Z,100813.53
2023-03-21T19:29:26.151Z,100810.03
2023-03-21T19:31:53.844Z,100810.94
2023-03-21T19:34:21.680Z,100810.91
2023-03-21T19:36:51.912Z,100815.28
2023-03-21T19:39:22.230Z,100809.25
2023-03-21T19:41:50.176Z,100812.78
2023-03-21T19:44:19.081Z,100808.56
2023-03-21T19:46:48.875Z,100806.72
2023-03-21T19:49:20.138Z,100807.88
2023-03-21T19:51:48.166Z,100799.09
2023-03-21T19:54:17.857Z,100798.28
2023-03-21T19:56:47.649Z,100807.69
2023-03-21T19:59:15.998Z,100802.47
2023-03-21T20:01:43.586Z,100804.19
2023-03-21T20:04:12.747Z,100805.22
2023-03-21T20:06:40.485Z,100806.03
2023-03-21T20:11:57.878Z,100800.94
2023-03-21T20:14:25.826Z,100809.56
2023-03-21T20:16:55.243Z,100813.00
2023-03-21T20:19:25.460Z,100806.03
2023-03-21T20:21:58.772Z,100817.25
2023-03-21T20:24:28.308Z,100816.34
2023-03-21T20:26:57.373Z,100812.03
2023-03-21T20:32:16.139Z,100816.47
2023-03-21T20:34:46.237Z,100811.25
2023-03-21T20:37:15.671Z,100821.72
2023-03-21T20:39:43.611Z,100813.97
2023-03-21T20:42:11.652Z,100811.38
2023-03-21T20:44:58.468Z,100813.94
2023-03-21T20:47:27.879Z,100810.38
2023-03-21T20:50:01.847Z,100813.94
2023-03-21T20:55:28.280Z,100807.91
2023-03-21T20:57:55.840Z,100814.78
2023-03-21T21:00:26.559Z,100802.66
2023-03-21T21:02:54.382Z,100799.25
2023-03-21T21:05:28.310Z,100811.38
2023-03-21T21:07:57.117Z,100789.72
2023-03-21T21:10:25.932Z,100790.66
2023-03-21T21:12:53.768Z,100795.84
2023-03-21T21:15:22.043Z,100789.75
2023-03-21T21:18:08.531Z,100775.78
2023-03-21T21:20:40.658Z,100779.22
2023-03-21T21:23:13.740Z,100773.16
2023-03-21T21:25:44.593Z,100780.22
2023-03-21T21:28:14.482Z,100787.16
2023-03-21T21:30:42.821Z,100793.19
2023-03-21T21:33:10.537Z,100799.31
2023-03-21T21:35:39.507Z,100788.00
2023-03-21T21:38:07.124Z,100772.88
2023-03-21T21:40:34.561Z,100770.63
2023-03-21T21:43:03.651Z,100771.47
2023-03-21T21:45:31.689Z,100775.06
2023-03-21T21:47:59.134Z,100768.22
2023-03-21T21:50:26.573Z,100772.50
2023-03-21T21:52:55.352Z,100773.31
2023-03-21T21:55:23.357Z,100766.44
2023-03-21T21:57:51.243Z,100775.06
2023-03-21T22:00:20.563Z,100769.00
2023-03-21T22:02:48.265Z,100773.31
2023-03-21T22:05:16.260Z,100768.13
2023-03-21T22:07:44.192Z,100773.31
2023-03-21T22:10:13.379Z,100773.44
2023-03-21T22:12:41.169Z,100770.81
2023-03-21T22:15:10.707Z,100769.97
2023-03-21T22:17:39.070Z,100774.28
2023-03-21T22:20:08.777Z,100773.44
2023-03-21T22:22:37.312Z,100773.38
2023-03-21T22:25:06.744Z,100772.50
2023-03-21T22:27:35.711Z,100776.81
2023-03-21T22:30:04.872Z,100779.44
2023-03-21T22:32:32.387Z,100788.94
2023-03-21T22:35:02.256Z,100780.28
2023-03-21T22:37:29.882Z,100774.22
2023-03-21T22:39:57.284Z,100770.78
2023-03-21T22:42:25.324Z,100761.34
2023-03-21T22:44:54.084Z,100763.03
2023-03-21T22:47:21.594Z,100764.81
2023-03-21T22:49:49.061Z,100761.34
2023-03-21T22:52:16.519Z,100776.88
2023-03-21T22:54:44.096Z,100758.69
2023-03-21T22:57:13.587Z,100767.38
2023-03-21T22:59:41.171Z,100769.03
2023-03-21T23:02:10.382Z,100771.69
2023-03-21T23:04:38.202Z,100773.41
2023-03-21T23:07:05.859Z,100754.41
2023-03-21T23:09:33.560Z,100757.75
2023-03-21T23:12:01.164Z,100757.91
2023-03-21T23:14:28.849Z,100762.22
2023-03-21T23:17:00.144Z,100761.28
2023-03-21T23:19:29.614Z,100763.09
2023-03-21T23:21:57.780Z,100761.38
2023-03-21T23:24:25.731Z,100763.06
2023-03-21T23:26:53.418Z,100752.69
2023-03-21T23:29:20.955Z,100751.81
2023-03-21T23:31:48.430Z,100748.31
2023-03-21T23:34:16.286Z,100745.75
2023-03-21T23:36:45.209Z,100747.50
2023-03-21T23:39:12.635Z,100743.19
2023-03-21T23:41:42.649Z,100738.88
2023-03-21T23:44:10.113Z,100725.94
2023-03-21T23:46:37.683Z,100734.53
2023-03-21T23:49:05.255Z,100729.41
2023-03-21T23:51:32.727Z,100730.31
2023-03-21T23:54:01.613Z,100734.59
2023-03-21T23:56:29.342Z,100733.78
2023-03-21T23:58:58.185Z,100735.50
